Latest Weather Observations for Samuel Hill

IDQ60801

Issued at 3:42 pm EST Monday 19 November 2018 (issued every 10 minutes, with the page automatically refreshed every 10 minutes)

About weather observations | Map of weather stations | Latest weather observations for QLD | Other Formats
Station Details ID: 033308 Name: SAMUEL HILL AERO Lat: -22.74 Lon: 150.66 Height: 31.0 m
Data from the previous 72 hours. | See also: Recent months at Samuel Hill
Date/Time
EST
Temp
°C
App
Temp
°C
Dew
Point
°C
Rel
Hum
%
Delta-T
°C
Wind Press
QNH
hPa
Press
MSL
hPa
Rain since
9am
mm
Dir  Spd
km/h
Gust
km/h
Spd
kts
Gust
kts
19/03:30pm 24.3 23.6 17.3 65 4.3 SE 17 28 9 15 1014.6 1014.4 0.8
19/03:00pm 23.7 22.6 17.2 67 4.0 ESE 19 33 10 18 1014.7 1014.5 0.8
19/02:30pm 23.1 22.7 18.0 73 3.2 SE 17 26 9 14 1014.8 1014.6 0.8
19/02:00pm 23.7 22.6 17.7 69 3.7 ESE 20 28 11 15 1015.0 1014.8 0.8
19/01:30pm 23.6 23.0 18.5 73 3.2 SE 19 32 10 17 1015.2 1015.0 0.8
19/01:00pm 22.9 24.2 19.3 80 2.3 SE 11 20 6 11 1015.3 1015.1 0.8
19/12:44pm 22.8 23.7 19.2 80 2.3 ESE 13 19 7 10 1015.4 1015.2 0.6
19/12:34pm 22.8 24.0 19.8 83 1.9 ESE 13 20 7 11 1015.4 1015.2 0.6
19/12:30pm 22.7 23.6 19.3 81 2.2 ESE 13 24 7 13 1015.4 1015.2 0.6
19/12:21pm 23.2 23.5 19.6 80 2.3 ESE 17 28 9 15 1015.4 1015.2 0.2
19/12:08pm 23.1 23.2 19.1 78 2.5 ESE 17 22 9 12 1015.5 1015.3 0.2
19/12:00pm 24.3 24.0 19.1 73 3.3 E 19 32 10 17 1015.6 1015.4 0.0
19/11:30am 24.6 24.0 18.8 70 3.7 ESE 20 28 11 15 1015.8 1015.6 0.0
19/11:00am 25.1 24.0 17.8 64 4.6 ESE 20 32 11 17 1016.0 1015.8 0.0
19/10:30am 25.7 25.3 18.9 66 4.3 E 19 28 10 15 1016.1 1015.9 0.0
19/10:00am 24.6 23.8 18.5 69 3.9 ESE 20 28 11 15 1016.4 1016.2 0.0
19/09:30am 26.6 27.0 20.9 71 3.8 E 20 30 11 16 1016.4 1016.2 0.0
19/09:00am 24.9 25.3 19.9 74 3.2 ESE 17 22 9 12 1016.4 1016.2 2.2
19/08:30am 24.6 25.4 19.9 75 3.0 ESE 15 20 8 11 1016.4 1016.2 2.2
19/08:00am 23.6 26.6 20.9 85 1.8 SE 6 9 3 5 1016.3 1016.1 2.2
19/07:30am 23.0 25.7 20.7 87 1.5 SE 7 9 4 5 1016.0 1015.8 2.2
19/07:00am 22.8 25.0 20.3 86 1.6 SSE 9 13 5 7 1016.1 1015.9 2.2
19/06:30am 21.3 24.3 20.1 93 0.8 S 4 6 2 3 1016.0 1015.8 2.2
19/06:00am 20.7 22.5 19.5 93 0.8 S 9 11 5 6 1015.6 1015.4 2.2
19/05:30am 20.4 22.5 19.4 94 0.6 SSE 7 9 4 5 1015.1 1014.9 2.2
19/05:00am 20.1 22.0 18.9 93 0.8 ESE 7 9 4 5 1015.0 1014.8 2.2
19/04:30am 20.1 22.1 18.8 92 0.8 SE 6 7 3 4 1014.7 1014.5 2.2
19/04:00am 20.2 22.3 19.0 93 0.8 SSE 6 9 3 5 1014.8 1014.6 2.2
19/03:30am 20.2 20.9 18.9 92 0.8 SSE 13 17 7 9 1014.9 1014.7 2.0
19/03:00am 21.4 23.6 20.4 94 0.6 SSW 9 15 5 8 1015.3 1015.1 1.6
19/02:30am 21.4 23.6 20.4 94 0.6 SW 9 13 5 7 1015.3 1015.1 1.4
19/02:00am 21.3 23.9 20.1 93 0.8 SSW 6 9 3 5 1015.3 1015.1 1.4
19/01:30am 21.2 23.1 19.8 92 0.9 SSW 9 11 5 6 1015.3 1015.1 1.4
19/01:00am 21.4 23.3 19.7 90 1.1 S 9 15 5 8 1015.6 1015.4 0.6
19/12:30am 22.9 25.2 19.5 81 2.2 E 6 11 3 6 1015.7 1015.5 0.2
19/12:00am 23.4 26.3 19.1 77 2.7 ESE 2 6 1 3 1015.9 1015.7 0.2
 
Date/Time
EST
Temp
°C
App
Temp
°C
Dew
Point
°C
Rel
Hum
%
Delta-T
°C
Wind Press
QNH
hPa
Press
MSL
hPa
Rain since
9am
mm
Dir  Spd
km/h
Gust
km/h
Spd
kts
Gust
kts
18/11:30pm 23.2 25.4 19.2 78 2.5 ESE 6 7 3 4 1016.2 1016.0 0.2
18/11:00pm 22.8 24.8 18.8 78 2.5 ESE 6 9 3 5 1016.2 1016.0 0.2
18/10:30pm 22.7 24.0 18.5 77 2.6 E 9 13 5 7 1016.0 1015.8 0.2
18/10:00pm 22.7 24.3 18.3 76 2.8 ESE 7 9 4 5 1015.9 1015.7 0.2
18/09:30pm 22.9 24.2 18.4 76 2.8 E 9 11 5 6 1015.8 1015.6 0.2
18/09:00pm 22.8 24.5 18.6 77 2.6 ESE 7 9 4 5 1015.7 1015.5 0.2
18/08:30pm 22.5 23.9 18.7 79 2.4 ESE 9 11 5 6 1015.3 1015.1 0.2
18/08:00pm 22.6 24.3 18.6 78 2.5 ESE 7 9 4 5 1015.0 1014.8 0.2
18/07:30pm 22.7 24.3 18.3 76 2.8 ESE 7 9 4 5 1014.4 1014.2 0.2
18/07:00pm 23.5 24.7 18.2 72 3.3 E 9 9 5 5 1014.0 1013.8 0.2
18/06:30pm 24.1 24.7 17.8 68 3.9 E 11 15 6 8 1013.9 1013.7 0.2
18/06:00pm 24.9 25.7 18.1 66 4.3 E 11 17 6 9 1013.5 1013.3 0.2
18/05:30pm 25.9 25.8 17.8 61 5.1 ENE 15 22 8 12 1013.2 1013.0 0.2
18/05:00pm 26.2 25.4 18.1 61 5.1 ENE 19 26 10 14 1013.0 1012.8 0.2
18/04:30pm 26.8 26.2 17.6 57 5.8 E 17 24 9 13 1012.9 1012.7 0.2
18/04:00pm 27.5 26.7 18.5 58 5.8 E 20 28 11 15 1012.9 1012.7 0.2
18/03:30pm 27.7 27.0 18.7 58 5.8 E 20 30 11 16 1013.0 1012.8 0.2
18/03:00pm 28.4 28.1 19.1 57 6.0 E 19 30 10 16 1012.9 1012.7 0.2
18/02:30pm 28.8 28.3 18.6 54 6.6 E 19 28 10 15 1013.1 1012.9 0.2
18/02:00pm 28.2 27.3 18.3 55 6.3 ENE 20 30 11 16 1013.2 1013.0 0.2
18/01:30pm 28.9 28.1 18.1 52 6.9 E 19 28 10 15 1013.4 1013.2 0.2
18/01:00pm 29.0 28.6 18.1 51 7.0 ENE 17 28 9 15 1013.6 1013.4 0.2
18/12:30pm 29.1 28.2 18.2 51 7.0 E 20 30 11 16 1013.7 1013.5 0.2
18/12:00pm 29.6 29.4 19.3 54 6.7 ENE 19 28 10 15 1013.9 1013.7 0.2
18/11:30am 29.8 29.8 18.9 52 7.1 ENE 17 30 9 16 1014.0 1013.8 0.2
18/11:00am 30.3 31.1 19.0 50 7.3 ENE 13 20 7 11 1014.3 1014.1 0.2
18/10:30am 29.4 30.2 18.2 51 7.2 ESE 11 19 6 10 1014.6 1014.4 0.2
18/10:00am 28.9 29.5 18.7 54 6.6 ENE 13 19 7 10 1014.7 1014.5 0.2
18/09:30am 28.2 29.3 18.9 57 6.0 E 11 17 6 9 1014.6 1014.4 0.2
18/09:00am 27.1 28.6 18.9 61 5.3 NE 9 15 5 8 1014.7 1014.5 0.6
18/08:30am 26.3 28.8 19.9 68 4.2 NE 6 17 3 9 1014.8 1014.6 0.6
18/08:00am 26.4 27.6 20.0 68 4.2 E 13 19 7 10 1014.6 1014.4 0.6
18/07:30am 26.0 27.8 20.3 71 3.7 E 11 17 6 9 1014.5 1014.3 0.6
18/07:00am 25.2 28.0 20.9 77 2.8 E 7 13 4 7 1014.4 1014.2 0.6
18/06:30am 24.3 27.9 21.2 83 2.0 SE 4 9 2 5 1014.4 1014.2 0.6
18/06:00am 22.9 26.6 21.4 91 1.0 ESE 4 6 2 3 1014.1 1013.9 0.6
18/05:30am 22.1 24.1 20.7 92 0.9 E 11 17 6 9 1013.9 1013.7 0.6
18/05:00am 21.8 25.8 20.6 93 0.8 CALM 0 0 0 0 1013.8 1013.6 0.6
18/04:30am 21.6 24.8 20.4 93 0.8 SSW 4 7 2 4 1013.4 1013.2 0.2
18/04:00am 21.6 24.8 20.6 94 0.6 SE 4 9 2 5 1013.4 1013.2 0.2
18/03:30am 20.7 23.3 19.2 91 0.9 SW 4 7 2 4 1013.1 1012.9 0.0
18/03:00am 20.1 23.2 18.6 91 0.9 CALM 0 0 0 0 1013.0 1012.8 0.0
18/02:30am 20.3 23.3 18.4 89 1.2 CALM 0 0 0 0 1013.1 1012.9 0.0
18/02:00am 21.0 23.2 19.1 89 1.2 SSE 6 9 3 5 1013.4 1013.2 0.0
18/01:30am 20.6 22.2 19.1 91 0.9 SSE 9 13 5 7 1013.4 1013.2 0.0
18/01:00am 20.6 23.1 19.1 91 0.9 N 4 7 2 4 1013.4 1013.2 0.0
18/12:30am 20.7 22.8 19.0 90 1.1 WSW 6 7 3 4 1013.8 1013.6 0.0
18/12:00am 20.6 22.8 19.3 92 0.8 ESE 6 9 3 5 1013.8 1013.6 0.0
 
Date/Time
EST
Temp
°C
App
Temp
°C
Dew
Point
°C
Rel
Hum
%
Delta-T
°C
Wind Press
QNH
hPa
Press
MSL
hPa
Rain since
9am
mm
Dir  Spd
km/h
Gust
km/h
Spd
kts
Gust
kts
17/11:30pm 20.1 22.1 18.8 92 0.8 NNE 6 7 3 4 1013.5 1013.3 0.0
17/11:00pm 19.8 21.6 18.3 91 0.9 N 6 9 3 5 1014.0 1013.8 0.0
17/10:30pm 19.6 21.0 17.9 90 1.0 NNE 7 9 4 5 1014.4 1014.2 0.0
17/10:00pm 20.6 22.8 18.4 87 1.4 S 4 6 2 3 1015.1 1014.9 0.0
17/09:30pm 21.0 21.5 19.3 90 1.1 SSW 15 20 8 11 1015.1 1014.9 0.0
17/09:00pm 19.9 21.5 17.9 88 1.2 WSW 6 7 3 4 1014.3 1014.1 0.0
17/08:30pm 20.6 23.1 18.2 86 1.5 S 2 7 1 4 1014.3 1014.1 0.0
17/08:00pm 21.5 23.5 18.7 84 1.8 W 6 9 3 5 1013.6 1013.4 0.0
17/07:30pm 21.7 24.6 18.3 81 2.1 CALM 0 0 0 0 1013.5 1013.3 0.0
17/07:00pm 23.0 25.4 18.7 77 2.7 NNE 4 6 2 3 1013.3 1013.1 0.0
17/06:30pm 23.8 25.3 18.9 74 3.1 NE 9 13 5 7 1012.8 1012.6 0.0
17/06:00pm 24.8 26.3 19.0 70 3.7 NE 9 15 5 8 1012.5 1012.3 0.0
17/05:30pm 25.8 26.6 19.0 66 4.4 ENE 13 19 7 10 1012.3 1012.1 0.0
17/05:00pm 26.6 26.9 18.7 62 5.1 ENE 15 22 8 12 1012.0 1011.8 0.0
17/04:30pm 27.3 27.0 18.3 58 5.7 NE 17 22 9 12 1011.7 1011.5 0.0
17/04:00pm 28.1 28.0 18.8 57 6.0 NE 17 24 9 13 1011.8 1011.6 0.0
17/03:30pm 28.7 28.4 18.2 53 6.7 ENE 17 26 9 14 1011.8 1011.6 0.0
17/03:00pm 29.1 28.3 17.0 48 7.6 NE 17 24 9 13 1011.9 1011.7 0.0
17/02:30pm 29.1 28.1 16.6 46 7.8 NNE 17 24 9 13 1012.4 1012.2 0.0
17/02:00pm 29.8 28.8 16.6 45 8.3 NNE 17 26 9 14 1012.7 1012.5 0.0
17/01:30pm 29.8 29.8 15.1 40 9.0 NE 9 17 5 9 1013.2 1013.0 0.0
17/01:00pm 29.4 28.2 14.0 39 9.3 ENE 13 20 7 11 1013.6 1013.4 0.0
17/12:30pm 29.7 29.5 14.7 40 9.1 E 9 17 5 9 1014.1 1013.9 0.0
17/12:00pm 29.1 28.3 16.0 45 8.1 NE 15 22 8 12 1014.5 1014.3 0.0
17/11:30am 28.9 29.0 16.5 47 7.7 E 11 19 6 10 1014.9 1014.7 0.0
17/11:00am 28.5 27.7 16.1 47 7.7 ENE 15 24 8 13 1015.1 1014.9 0.0
17/10:30am 28.7 29.3 17.6 51 7.0 ENE 11 22 6 12 1015.2 1015.0 0.0
17/10:00am 27.2 26.0 16.2 51 6.8 ENE 17 22 9 12 1015.3 1015.1 0.0
17/09:30am 27.3 26.4 16.9 53 6.5 ENE 17 26 9 14 1015.2 1015.0 0.0
17/09:00am 26.0 25.3 16.5 55 5.9 ENE 15 20 8 11 1015.4 1015.2 0.0
17/08:30am 26.3 26.9 17.6 58 5.5 NE 11 20 6 11 1015.6 1015.4 0.0
17/08:00am 25.5 26.5 18.7 66 4.3 ENE 11 17 6 9 1015.5 1015.3 0.0
17/07:30am 24.8 27.1 18.5 68 4.0 ESE 4 7 2 4 1015.6 1015.4 0.0
17/07:00am 22.9 25.0 18.9 78 2.5 SSE 6 9 3 5 1015.3 1015.1 0.0
17/06:30am 20.4 23.3 18.2 87 1.4 CALM 0 0 0 0 1015.0 1014.8 0.0
17/06:00am 17.8 20.1 16.7 93 0.7 CALM 0 0 0 0 1014.5 1014.3 0.0
17/05:30am 16.2 17.9 15.2 94 0.6 CALM 0 0 0 0 1014.2 1014.0 0.0
17/05:00am 15.4 16.8 14.3 93 0.6 CALM 0 0 0 0 1013.9 1013.7 0.0
17/04:30am 15.5 16.8 14.2 92 0.7 CALM 0 0 0 0 1013.6 1013.4 0.0
17/04:00am 15.6 17.0 14.3 92 0.7 CALM 0 0 0 0 1013.3 1013.1 0.0
17/03:30am 15.8 17.2 14.5 92 0.7 CALM 0 0 0 0 1013.1 1012.9 0.0
17/03:00am 15.9 17.3 14.4 91 0.9 CALM 0 0 0 0 1013.1 1012.9 0.0
17/02:30am 16.3 17.9 15.0 92 0.8 CALM 0 0 0 0 1013.1 1012.9 0.0
17/02:00am 16.7 18.5 15.4 92 0.8 CALM 0 0 0 0 1013.1 1012.9 0.0
17/01:30am 16.6 18.3 15.1 91 0.9 CALM 0 0 0 0 1013.1 1012.9 0.0
17/01:00am 16.9 18.7 15.6 92 0.8 CALM 0 0 0 0 1013.3 1013.1 0.0
17/12:30am 17.2 19.2 15.9 92 0.8 CALM 0 0 0 0 1013.8 1013.6 0.0
17/12:00am 17.4 19.0 15.9 91 0.9 W 2 7 1 4 1014.3 1014.1 0.0
 
Date/Time
EST
Temp
°C
App
Temp
°C
Dew
Point
°C
Rel
Hum
%
Delta-T
°C
Wind Press
QNH
hPa
Press
MSL
hPa
Rain since
9am
mm
Dir  Spd
km/h
Gust
km/h
Spd
kts
Gust
kts
16/11:30pm 17.3 19.1 15.6 90 1.0 CALM 0 0 0 0 1014.7 1014.5 0.0
16/11:00pm 17.6 19.6 15.9 90 1.0 CALM 0 0 0 0 1014.8 1014.6 0.0
16/10:30pm 17.7 19.7 15.9 89 1.1 CALM 0 7 0 4 1015.4 1015.2 0.0
16/10:00pm 18.5 20.7 16.5 88 1.2 CALM 0 0 0 0 1015.4 1015.2 0.0
16/09:30pm 18.7 20.9 16.5 87 1.3 CALM 0 0 0 0 1015.3 1015.1 0.0
16/09:00pm 19.4 21.8 17.0 86 1.5 CALM 0 0 0 0 1015.3 1015.1 0.0
16/08:30pm 19.5 21.8 16.7 84 1.7 CALM 0 0 0 0 1015.1 1014.9 0.0
16/08:00pm 20.1 22.4 16.7 81 2.1 CALM 0 0 0 0 1015.0 1014.8 0.0
16/07:30pm 21.1 23.6 17.3 79 2.3 CALM 0 0 0 0 1014.6 1014.4 0.0
16/07:00pm 22.2 24.6 16.9 72 3.2 CALM 0 0 0 0 1014.5 1014.3 0.0
16/06:30pm 23.2 23.8 16.7 67 4.0 ENE 9 11 5 6 1014.1 1013.9 0.0
16/06:00pm 24.3 24.3 16.3 61 4.9 ENE 11 17 6 9 1013.8 1013.6 0.0
16/05:30pm 25.5 24.8 15.5 54 6.1 ENE 13 20 7 11 1013.6 1013.4 0.0
16/05:00pm 26.3 24.3 13.8 46 7.4 NE 17 22 9 12 1013.3 1013.1 0.0
16/04:30pm 27.3 25.7 14.0 44 7.9 ENE 15 22 8 12 1013.1 1012.9 0.0
16/04:00pm 27.9 26.6 14.9 45 7.9 ENE 15 22 8 12 1013.0 1012.8 0.0

Other Formats:

Comma delimited format used in spreadsheet applications
http://www.bom.gov.au/fwo/IDQ60801/IDQ60801.94370.axf

JavaScript Object Notation format (JSON) in row-major order
http://www.bom.gov.au/fwo/IDQ60801/IDQ60801.94370.json